createdAt,value
2019-06-10T00:00:55.290Z,5.40
2019-06-10T00:01:55.469Z,4.90
2019-06-10T00:02:55.581Z,4.80
2019-06-10T00:03:55.505Z,4.60
2019-06-10T00:04:55.545Z,6.50
2019-06-10T00:05:55.651Z,7.40
2019-06-10T00:06:55.767Z,4.20
2019-06-10T00:07:55.831Z,4.80
2019-06-10T00:08:55.972Z,6.00
2019-06-10T00:09:56.104Z,6.60
2019-06-10T00:10:54.755Z,5.20
2019-06-10T00:11:54.796Z,5.20
2019-06-10T00:12:55.474Z,5.00
2019-06-10T00:13:54.710Z,4.30
2019-06-10T00:14:54.712Z,5.00
2019-06-10T00:16:04.641Z,4.90
2019-06-10T00:16:54.735Z,4.70
2019-06-10T00:18:17.240Z,4.10
2019-06-10T00:18:55.648Z,8.40
2019-06-10T00:19:54.640Z,5.30
2019-06-10T00:20:54.631Z,3.90
2019-06-10T00:21:54.621Z,3.60
2019-06-10T00:22:54.641Z,5.30
2019-06-10T00:23:54.598Z,4.30
2019-06-10T00:24:54.590Z,4.40
2019-06-10T00:25:54.575Z,4.20
2019-06-10T00:26:54.564Z,5.40
2019-06-10T00:27:54.586Z,3.40
2019-06-10T00:28:54.542Z,4.80
2019-06-10T00:29:54.538Z,3.80
2019-06-10T00:30:54.518Z,5.00
2019-06-10T00:31:54.519Z,4.20
2019-06-10T00:32:54.518Z,6.30
2019-06-10T00:33:54.490Z,4.50
2019-06-10T00:34:54.482Z,4.80
2019-06-10T00:35:54.468Z,4.40
2019-06-10T00:36:54.467Z,5.00
2019-06-10T00:37:54.467Z,4.40
2019-06-10T00:38:54.433Z,5.30
2019-06-10T00:39:54.421Z,6.40
2019-06-10T00:40:54.413Z,4.60
2019-06-10T00:41:54.416Z,4.10
2019-06-10T00:42:54.413Z,5.60
2019-06-10T00:43:54.381Z,6.00
2019-06-10T00:44:54.369Z,4.60
2019-06-10T00:45:54.364Z,4.30
2019-06-10T00:46:54.373Z,5.20
2019-06-10T00:48:08.601Z,5.30
2019-06-10T00:48:55.327Z,4.50
2019-06-10T00:49:54.316Z,4.90
2019-06-10T00:50:54.308Z,4.10
2019-06-10T00:51:54.302Z,3.50
2019-06-10T00:52:54.301Z,4.60
2019-06-10T00:53:54.278Z,6.30
2019-06-10T00:54:54.259Z,5.50
2019-06-10T00:55:54.263Z,4.50
2019-06-10T00:56:54.240Z,6.00
2019-06-10T00:57:54.251Z,4.20
2019-06-10T00:58:54.217Z,5.00
2019-06-10T00:59:54.210Z,4.20
2019-06-10T01:00:54.219Z,6.30
2019-06-10T01:01:54.191Z,4.50
2019-06-10T01:02:54.202Z,4.40
2019-06-10T01:03:54.176Z,4.80
2019-06-10T01:04:54.168Z,3.70
2019-06-10T01:05:54.145Z,4.70
2019-06-10T01:06:54.134Z,4.60
2019-06-10T01:07:54.121Z,5.20
2019-06-10T01:08:54.131Z,4.80
2019-06-10T01:09:54.122Z,4.60
2019-06-10T01:10:54.090Z,6.40
2019-06-10T01:11:54.080Z,4.30
2019-06-10T01:12:54.071Z,7.00
2019-06-10T01:13:54.086Z,6.30
2019-06-10T01:14:54.053Z,4.10
2019-06-10T01:15:54.037Z,5.30
2019-06-10T01:16:54.028Z,4.60
2019-06-10T01:17:54.014Z,5.40
2019-06-10T01:18:54.041Z,4.90
2019-06-10T01:19:53.995Z,4.50
2019-06-10T01:20:53.991Z,6.10
2019-06-10T01:21:53.976Z,4.30
2019-06-10T01:22:53.965Z,4.50
2019-06-10T01:23:53.963Z,6.50
2019-06-10T01:24:53.968Z,6.80
2019-06-10T01:25:53.931Z,8.00
2019-06-10T01:26:53.921Z,4.10
2019-06-10T01:27:53.912Z,7.20
2019-06-10T01:28:53.899Z,7.20
2019-06-10T01:29:53.907Z,6.00
2019-06-10T01:30:53.887Z,6.00
2019-06-10T01:31:53.867Z,7.60
2019-06-10T01:32:53.869Z,4.60
2019-06-10T01:33:53.847Z,8.40
2019-06-10T01:34:53.853Z,4.90
2019-06-10T01:35:53.828Z,7.00
2019-06-10T01:36:53.816Z,8.00
2019-06-10T01:37:53.803Z,7.30
2019-06-10T01:38:53.799Z,6.30
2019-06-10T01:39:53.823Z,6.30
2019-06-10T01:40:53.771Z,7.30
2019-06-10T01:41:53.774Z,7.40
2019-06-10T01:42:53.749Z,5.40
2019-06-10T01:43:53.742Z,7.30
2019-06-10T01:44:53.733Z,6.10
2019-06-10T01:45:53.737Z,6.30
2019-06-10T01:46:53.713Z,8.20
2019-06-10T01:47:53.697Z,5.10
2019-06-10T01:48:53.687Z,6.30
2019-06-10T01:49:53.678Z,4.20
2019-06-10T01:50:53.693Z,6.60
2019-06-10T01:51:53.654Z,6.40
2019-06-10T01:52:53.642Z,6.10
2019-06-10T01:53:53.652Z,7.00
2019-06-10T01:54:53.626Z,5.50
2019-06-10T01:55:53.648Z,6.10
2019-06-10T01:56:53.608Z,8.00
2019-06-10T01:57:53.588Z,6.70
2019-06-10T01:58:53.579Z,6.60
2019-06-10T01:59:53.592Z,6.20
2019-06-10T02:00:53.579Z,5.60
2019-06-10T02:01:53.547Z,7.20
2019-06-10T02:02:53.538Z,6.90
2019-06-10T02:03:53.531Z,5.50
2019-06-10T02:04:53.517Z,6.30
2019-06-10T02:05:53.533Z,4.70
2019-06-10T02:06:53.497Z,5.20
2019-06-10T02:07:53.487Z,7.20
2019-06-10T02:08:53.485Z,5.40
2019-06-10T02:09:53.461Z,6.10
2019-06-10T02:10:53.467Z,7.30
2019-06-10T02:11:53.438Z,6.40
2019-06-10T02:12:53.436Z,5.40
2019-06-10T02:13:53.419Z,6.50
2019-06-10T02:14:53.408Z,5.40
2019-06-10T02:15:53.417Z,4.90
2019-06-10T02:16:53.387Z,6.20
2019-06-10T02:17:53.377Z,6.40
2019-06-10T02:19:00.297Z,5.90
2019-06-10T02:19:54.357Z,5.90
2019-06-10T02:20:53.365Z,7.30
2019-06-10T02:21:53.337Z,6.10
2019-06-10T02:22:53.338Z,5.50
2019-06-10T02:23:53.312Z,4.70
2019-06-10T02:24:53.300Z,6.00
2019-06-10T02:25:53.289Z,5.40
2019-06-10T02:26:53.298Z,5.10
2019-06-10T02:27:53.285Z,6.10
2019-06-10T02:28:53.256Z,4.80
2019-06-10T02:29:53.248Z,6.70
2019-06-10T02:30:55.672Z,5.40
2019-06-10T02:31:53.300Z,5.10
2019-06-10T02:32:53.219Z,7.60
2019-06-10T02:33:53.210Z,5.80
2019-06-10T02:35:08.062Z,7.90
2019-06-10T02:35:54.193Z,5.80
2019-06-10T02:36:53.836Z,5.20
2019-06-10T02:37:53.957Z,5.70
2019-06-10T02:38:54.035Z,5.50
2019-06-10T02:39:54.133Z,5.70
2019-06-10T02:40:54.001Z,7.70
2019-06-10T02:41:53.704Z,6.80
2019-06-10T02:42:53.971Z,7.10
2019-06-10T02:43:53.531Z,5.70
2019-06-10T02:44:54.087Z,6.60
2019-06-10T02:45:53.266Z,6.70
2019-06-10T02:46:54.396Z,5.60
2019-06-10T02:47:53.445Z,4.30
2019-06-10T02:48:54.493Z,5.70
2019-06-10T02:50:02.491Z,5.60
2019-06-10T02:50:54.395Z,5.10
2019-06-10T02:51:53.737Z,7.30
2019-06-10T02:52:53.181Z,6.40
2019-06-10T02:53:53.771Z,5.50
2019-06-10T02:54:53.704Z,6.40
2019-06-10T02:55:53.926Z,6.50
2019-06-10T02:56:54.138Z,5.50
2019-06-10T02:57:53.360Z,7.50
2019-06-10T02:58:53.600Z,6.40
2019-06-10T02:59:54.460Z,5.20
2019-06-10T03:00:54.635Z,7.90
2019-06-10T03:01:53.602Z,5.90
2019-06-10T03:02:53.152Z,5.10
2019-06-10T03:03:54.201Z,5.60
2019-06-10T03:04:53.594Z,6.40
2019-06-10T03:05:53.696Z,4.80
2019-06-10T03:06:54.334Z,5.00
2019-06-10T03:07:53.414Z,5.40
2019-06-10T03:08:54.882Z,6.60
2019-06-10T03:09:53.766Z,6.10
2019-06-10T03:10:54.703Z,7.90
2019-06-10T03:11:53.534Z,6.50
2019-06-10T03:12:52.908Z,7.30
2019-06-10T03:13:53.163Z,6.30
2019-06-10T03:14:52.763Z,5.20
2019-06-10T03:15:52.789Z,7.60
2019-06-10T03:16:52.945Z,7.10
2019-06-10T03:17:52.770Z,7.60
2019-06-10T03:18:52.722Z,6.80
2019-06-10T03:19:53.626Z,7.60
2019-06-10T03:20:52.955Z,8.10
2019-06-10T03:21:52.687Z,6.40
2019-06-10T03:22:52.698Z,6.50
2019-06-10T03:23:53.105Z,6.50
2019-06-10T03:24:52.654Z,6.60
2019-06-10T03:25:52.796Z,7.90
2019-06-10T03:26:52.645Z,6.10
2019-06-10T03:27:52.647Z,5.10
2019-06-10T03:28:52.640Z,6.70
2019-06-10T03:29:52.749Z,6.70
2019-06-10T03:30:58.075Z,9.00
2019-06-10T03:31:55.131Z,8.20
2019-06-10T03:32:55.554Z,6.70
2019-06-10T03:33:54.286Z,6.00
2019-06-10T03:34:54.761Z,7.20
2019-06-10T03:35:52.717Z,5.90
2019-06-10T03:36:53.524Z,5.70
2019-06-10T03:37:52.833Z,7.80
2019-06-10T03:38:53.711Z,7.20
2019-06-10T03:39:53.148Z,6.80
2019-06-10T03:40:52.565Z,7.20
2019-06-10T03:41:52.860Z,6.90
2019-06-10T03:42:52.462Z,7.10
2019-06-10T03:43:53.071Z,6.30
2019-06-10T03:44:52.662Z,5.60
2019-06-10T03:45:53.069Z,7.20
2019-06-10T03:46:52.469Z,5.80
2019-06-10T03:47:52.768Z,8.90
2019-06-10T03:48:52.692Z,8.30
2019-06-10T03:49:55.965Z,7.80
2019-06-10T03:50:52.489Z,8.00
2019-06-10T03:51:52.922Z,7.10
2019-06-10T03:52:52.539Z,6.10
2019-06-10T03:53:53.138Z,6.80
2019-06-10T03:54:52.586Z,7.30
2019-06-10T03:55:52.667Z,10.80
2019-06-10T03:56:52.315Z,6.60
2019-06-10T03:57:52.728Z,5.20
2019-06-10T03:58:52.298Z,5.60
2019-06-10T03:59:52.795Z,5.60
2019-06-10T04:00:52.389Z,7.40
2019-06-10T04:01:52.978Z,5.40
2019-06-10T04:02:53.216Z,7.80
2019-06-10T04:03:52.981Z,7.60
2019-06-10T04:04:52.464Z,7.00
2019-06-10T04:05:52.704Z,8.50
2019-06-10T04:06:53.130Z,7.50
2019-06-10T04:07:52.704Z,7.60
2019-06-10T04:08:52.403Z,6.60
2019-06-10T04:09:52.609Z,7.40
2019-06-10T04:10:52.213Z,6.80
2019-06-10T04:11:53.241Z,7.20
2019-06-10T04:12:52.409Z,6.10
2019-06-10T04:13:53.500Z,7.90
2019-06-10T04:14:52.250Z,6.30
2019-06-10T04:15:53.440Z,6.80
2019-06-10T04:16:52.589Z,6.90
2019-06-10T04:17:53.042Z,8.00
2019-06-10T04:18:53.467Z,8.60
2019-06-10T04:20:07.545Z,8.90
2019-06-10T04:20:53.053Z,7.20
2019-06-10T04:21:53.194Z,8.80
2019-06-10T04:22:52.356Z,9.10
2019-06-10T04:23:52.788Z,6.90
2019-06-10T04:24:52.135Z,8.50
2019-06-10T04:25:52.707Z,10.30
2019-06-10T04:26:52.183Z,9.50
2019-06-10T04:27:52.489Z,6.80
2019-06-10T04:28:52.982Z,8.40
2019-06-10T04:29:52.410Z,8.20
2019-06-10T04:30:53.562Z,5.90
2019-06-10T04:31:52.387Z,6.70
2019-06-10T04:32:52.876Z,7.00
2019-06-10T04:33:52.431Z,6.50
2019-06-10T04:34:52.959Z,7.70
2019-06-10T04:35:52.083Z,7.90
2019-06-10T04:36:52.539Z,8.50
2019-06-10T04:37:52.094Z,7.70
2019-06-10T04:38:52.541Z,8.30
2019-06-10T04:39:52.998Z,7.20
2019-06-10T04:40:52.531Z,8.00
2019-06-10T04:41:53.073Z,7.40
2019-06-10T04:42:52.554Z,8.40
2019-06-10T04:43:53.238Z,6.60
2019-06-10T04:44:52.578Z,7.10
2019-06-10T04:45:52.784Z,7.60
2019-06-10T04:46:52.110Z,7.70
2019-06-10T04:47:52.432Z,8.20
2019-06-10T04:48:53.242Z,6.70
2019-06-10T04:49:52.246Z,8.40
2019-06-10T04:50:53.455Z,7.70
2019-06-10T04:51:52.389Z,8.60
2019-06-10T04:52:52.897Z,7.90
2019-06-10T04:53:52.493Z,7.00
2019-06-10T04:54:52.754Z,7.60
2019-06-10T04:55:52.251Z,11.10
2019-06-10T04:56:52.903Z,8.00
2019-06-10T04:57:52.113Z,9.10
2019-06-10T04:58:52.560Z,12.20
2019-06-10T04:59:52.988Z,10.30
2019-06-10T05:00:52.406Z,7.40
2019-06-10T05:01:53.090Z,7.50
2019-06-10T05:02:52.223Z,6.50
2019-06-10T05:03:52.647Z,7.40
2019-06-10T05:04:53.182Z,7.20
2019-06-10T05:05:52.603Z,8.10
2019-06-10T05:06:52.650Z,8.20
2019-06-10T05:07:52.075Z,8.90
2019-06-10T05:08:53.595Z,8.80
2019-06-10T05:09:52.517Z,9.20
2019-06-10T05:10:52.935Z,9.60
2019-06-10T05:11:52.230Z,8.40
2019-06-10T05:12:52.568Z,8.40
2019-06-10T05:13:53.263Z,6.00
2019-06-10T05:14:52.653Z,6.90
2019-06-10T05:15:52.699Z,8.30
2019-06-10T05:16:51.471Z,10.40
2019-06-10T05:17:52.671Z,8.90
2019-06-10T05:18:54.536Z,7.60
2019-06-10T05:19:53.050Z,8.00
2019-06-10T05:20:58.245Z,8.30
2019-06-10T05:21:52.536Z,8.40
2019-06-10T05:22:52.854Z,8.30
2019-06-10T05:23:52.195Z,8.50
2019-06-10T05:24:52.736Z,9.20
2019-06-10T05:25:52.631Z,9.20
2019-06-10T05:26:52.719Z,8.50
2019-06-10T05:27:52.268Z,8.00
2019-06-10T05:28:52.473Z,8.40
2019-06-10T05:29:52.740Z,7.40
2019-06-10T05:30:53.190Z,8.90
2019-06-10T05:31:52.269Z,9.80
2019-06-10T05:32:52.386Z,10.90
2019-06-10T05:33:53.037Z,9.20
2019-06-10T05:34:52.794Z,8.30
2019-06-10T05:35:52.935Z,7.40
2019-06-10T05:36:52.542Z,9.30
2019-06-10T05:37:52.755Z,9.60
2019-06-10T05:38:52.626Z,8.90
2019-06-10T05:39:52.698Z,8.30
2019-06-10T05:40:52.096Z,7.70
2019-06-10T05:41:53.073Z,8.70
2019-06-10T05:42:52.843Z,7.60
2019-06-10T05:43:52.286Z,6.40
2019-06-10T05:44:52.459Z,10.20
2019-06-10T05:45:53.010Z,10.40
2019-06-10T05:46:52.819Z,10.20
2019-06-10T05:47:53.121Z,9.60
2019-06-10T05:48:52.652Z,7.90
2019-06-10T05:49:52.912Z,9.90
2019-06-10T05:51:00.096Z,7.40
2019-06-10T05:51:52.688Z,7.20
2019-06-10T05:52:52.027Z,8.50
2019-06-10T05:53:52.816Z,9.30
2019-06-10T05:54:52.145Z,9.20
2019-06-10T05:55:52.969Z,9.50
2019-06-10T05:56:52.164Z,8.40
2019-06-10T05:57:53.198Z,7.80
2019-06-10T05:58:52.469Z,7.40
2019-06-10T05:59:52.304Z,7.90
2019-06-10T06:00:53.024Z,8.90
2019-06-10T06:01:53.793Z,8.40
2019-06-10T06:02:52.263Z,8.40
2019-06-10T06:03:53.010Z,7.60
2019-06-10T06:04:53.036Z,9.70
2019-06-10T06:05:52.476Z,6.90
2019-06-10T06:06:53.186Z,6.60
2019-06-10T06:08:02.264Z,8.20
2019-06-10T06:08:53.465Z,7.10
2019-06-10T06:09:53.164Z,7.10
2019-06-10T06:10:52.755Z,8.70
2019-06-10T06:11:52.397Z,7.30
2019-06-10T06:12:52.681Z,8.10
2019-06-10T06:13:52.254Z,9.70
2019-06-10T06:14:52.768Z,10.00
2019-06-10T06:15:52.825Z,9.00
2019-06-10T06:16:53.160Z,7.70
2019-06-10T06:18:03.959Z,6.50
2019-06-10T06:18:52.673Z,7.60
2019-06-10T06:19:53.298Z,7.20
2019-06-10T06:20:52.595Z,9.10
2019-06-10T06:21:52.867Z,7.00
2019-06-10T06:22:52.223Z,7.20
2019-06-10T06:23:52.856Z,7.70
2019-06-10T06:24:52.299Z,8.40
2019-06-10T06:25:53.190Z,10.10
2019-06-10T06:26:53.271Z,8.70
2019-06-10T06:27:52.428Z,8.90
2019-06-10T06:28:53.259Z,9.00
2019-06-10T06:29:52.469Z,7.50
2019-06-10T06:30:52.713Z,7.90
2019-06-10T06:31:52.340Z,8.90
2019-06-10T06:32:53.071Z,9.50
2019-06-10T06:33:52.649Z,9.90
2019-06-10T06:34:52.668Z,7.50
2019-06-10T06:35:52.453Z,9.10
2019-06-10T06:36:52.799Z,13.00
2019-06-10T06:37:53.970Z,11.80
2019-06-10T06:38:52.879Z,12.70
2019-06-10T06:39:52.344Z,11.00
2019-06-10T06:40:53.712Z,12.10
2019-06-10T06:41:52.724Z,11.60
2019-06-10T06:42:52.538Z,9.00
2019-06-10T06:43:52.791Z,6.40
2019-06-10T06:44:52.521Z,7.50
2019-06-10T06:45:52.991Z,10.20
2019-06-10T06:46:50.482Z,10.00
2019-06-10T06:47:52.748Z,10.90
2019-06-10T06:48:53.006Z,10.30
2019-06-10T06:49:52.943Z,8.40
2019-06-10T06:51:01.736Z,9.10
2019-06-10T06:51:56.122Z,10.70
2019-06-10T06:53:18.823Z,11.90
2019-06-10T06:53:55.780Z,11.30
2019-06-10T06:54:52.883Z,11.40
2019-06-10T06:55:53.566Z,10.70
2019-06-10T06:56:53.448Z,11.10
2019-06-10T06:57:52.700Z,8.50
2019-06-10T06:58:52.457Z,11.50
2019-06-10T06:59:52.487Z,9.80
2019-06-10T07:01:03.795Z,10.20
2019-06-10T07:01:52.521Z,10.20
2019-06-10T07:02:52.778Z,10.00
2019-06-10T07:03:53.268Z,8.50
2019-06-10T07:04:52.430Z,9.20
2019-06-10T07:05:50.299Z,12.10
2019-06-10T07:06:54.972Z,11.40
2019-06-10T07:07:52.720Z,11.10
2019-06-10T07:09:01.487Z,8.90
2019-06-10T07:09:52.638Z,12.80
2019-06-10T07:10:52.269Z,12.60
2019-06-10T07:11:50.826Z,11.40
2019-06-10T07:12:52.272Z,11.70
2019-06-10T07:13:50.193Z,10.40
2019-06-10T07:14:52.466Z,11.10
2019-06-10T07:15:50.213Z,12.50
2019-06-10T07:16:52.774Z,10.60
2019-06-10T07:17:52.535Z,10.60
2019-06-10T07:18:50.591Z,10.10
2019-06-10T07:19:52.713Z,10.70
2019-06-10T07:20:50.140Z,10.80
2019-06-10T07:22:07.450Z,10.80
2019-06-10T07:22:53.303Z,9.30
2019-06-10T07:23:52.814Z,9.80
2019-06-10T07:24:52.645Z,11.00
2019-06-10T07:25:50.067Z,11.30
2019-06-10T07:26:54.267Z,10.00
2019-06-10T07:27:52.566Z,11.40
2019-06-10T07:28:50.037Z,10.30
2019-06-10T07:29:52.750Z,13.00
2019-06-10T07:30:52.825Z,10.10
2019-06-10T07:31:53.561Z,11.70
2019-06-10T07:32:49.992Z,10.10
2019-06-10T07:33:52.328Z,10.80
2019-06-10T07:34:52.310Z,10.40
2019-06-10T07:35:52.347Z,12.00
2019-06-10T07:36:52.029Z,10.40
2019-06-10T07:37:52.167Z,13.50
2019-06-10T07:38:53.568Z,11.50
2019-06-10T07:39:52.186Z,9.40
2019-06-10T07:40:49.904Z,9.90
2019-06-10T07:41:52.663Z,9.20
2019-06-10T07:42:49.900Z,9.00
2019-06-10T07:43:52.130Z,8.70
2019-06-10T07:44:49.862Z,10.50
2019-06-10T07:45:53.201Z,8.30
2019-06-10T07:46:49.873Z,10.10
2019-06-10T07:47:52.175Z,7.20
2019-06-10T07:48:53.522Z,8.50
2019-06-10T07:49:52.268Z,8.00
2019-06-10T07:50:49.799Z,7.30
2019-06-10T07:51:52.205Z,9.30
2019-06-10T07:52:49.806Z,7.00
2019-06-10T07:53:52.318Z,8.70
2019-06-10T07:54:49.756Z,7.90
2019-06-10T07:55:49.760Z,8.00
2019-06-10T07:56:50.700Z,7.50
2019-06-10T07:57:49.742Z,9.10
2019-06-10T07:58:49.722Z,6.70
2019-06-10T07:59:52.106Z,9.20
2019-06-10T08:00:49.706Z,8.40
2019-06-10T08:01:54.225Z,8.10
2019-06-10T08:02:52.884Z,10.00
2019-06-10T08:03:49.675Z,9.20
2019-06-10T08:04:49.653Z,9.60
2019-06-10T08:05:52.370Z,8.90
2019-06-10T08:06:50.694Z,8.70
2019-06-10T08:07:49.639Z,9.00
2019-06-10T08:08:49.620Z,10.20
2019-06-10T08:09:49.607Z,9.60
2019-06-10T08:10:49.592Z,7.30
2019-06-10T08:11:49.597Z,7.80
2019-06-10T08:12:49.588Z,10.40
2019-06-10T08:13:49.556Z,13.00
2019-06-10T08:14:49.549Z,9.40
2019-06-10T08:15:49.536Z,8.50
2019-06-10T08:16:49.530Z,8.70
2019-06-10T08:17:49.511Z,7.80
2019-06-10T08:19:16.114Z,8.50
2019-06-10T08:19:51.843Z,10.10
2019-06-10T08:20:49.481Z,8.60
2019-06-10T08:21:49.693Z,7.70
2019-06-10T08:22:54.393Z,7.00
2019-06-10T08:23:50.481Z,9.70
2019-06-10T08:24:49.465Z,10.60
2019-06-10T08:25:53.667Z,6.80
2019-06-10T08:26:50.429Z,6.80
2019-06-10T08:27:49.433Z,11.20
2019-06-10T08:28:49.462Z,6.30
2019-06-10T08:29:51.159Z,10.30
2019-06-10T08:30:52.949Z,11.80
2019-06-10T08:31:49.965Z,10.00
2019-06-10T08:32:53.282Z,12.30
2019-06-10T08:33:53.118Z,10.10
2019-06-10T08:34:49.343Z,9.30
2019-06-10T08:35:59.167Z,10.90
2019-06-10T08:36:53.579Z,9.50
2019-06-10T08:37:49.303Z,10.90
2019-06-10T08:38:49.304Z,7.50
2019-06-10T08:39:49.305Z,10.00
2019-06-10T08:40:49.327Z,9.70
2019-06-10T08:41:49.391Z,11.20
2019-06-10T08:42:49.251Z,11.50
2019-06-10T08:43:49.243Z,9.00
2019-06-10T08:44:49.258Z,10.90
2019-06-10T08:45:49.217Z,11.70
2019-06-10T08:46:49.206Z,12.80
2019-06-10T08:47:49.277Z,9.80
2019-06-10T08:48:49.612Z,11.30
2019-06-10T08:49:49.263Z,15.60
2019-06-10T08:50:50.184Z,9.10
2019-06-10T08:51:50.228Z,10.40
2019-06-10T08:53:05.674Z,9.90
2019-06-10T08:53:52.907Z,12.90
2019-06-10T08:54:51.055Z,13.60
2019-06-10T08:55:50.277Z,9.80
2019-06-10T08:56:50.885Z,9.10
2019-06-10T08:57:51.628Z,11.90
2019-06-10T08:58:50.825Z,10.30
2019-06-10T08:59:49.401Z,9.20
2019-06-10T09:00:49.552Z,12.20
2019-06-10T09:01:53.686Z,12.00
2019-06-10T09:02:53.677Z,10.20
2019-06-10T09:03:50.484Z,10.90
2019-06-10T09:04:50.568Z,10.10
2019-06-10T09:05:50.692Z,10.60
2019-06-10T09:06:50.740Z,9.90
2019-06-10T09:07:51.077Z,12.30
2019-06-10T09:08:53.891Z,13.70
2019-06-10T09:09:50.367Z,12.50
2019-06-10T09:10:51.606Z,12.10
2019-06-10T09:11:51.327Z,11.00
2019-06-10T09:12:54.193Z,12.50
2019-06-10T09:13:50.332Z,10.40
2019-06-10T09:14:50.628Z,8.80
2019-06-10T09:16:05.960Z,13.10
2019-06-10T09:16:51.400Z,12.00
2019-06-10T09:17:52.093Z,11.50
2019-06-10T09:18:51.207Z,10.60
2019-06-10T09:19:51.022Z,13.10
2019-06-10T09:20:52.682Z,9.90
2019-06-10T09:21:53.384Z,13.70
2019-06-10T09:23:12.994Z,11.40
2019-06-10T09:23:58.492Z,12.10
2019-06-10T09:24:54.918Z,10.80
2019-06-10T09:25:54.507Z,10.90
2019-06-10T09:26:51.385Z,11.00
2019-06-10T09:27:51.516Z,13.90
2019-06-10T09:28:52.730Z,10.20
2019-06-10T09:29:55.172Z,11.30
2019-06-10T09:30:54.046Z,11.20
2019-06-10T09:31:53.278Z,12.70
2019-06-10T09:32:52.859Z,11.90
2019-06-10T09:33:53.639Z,10.90
2019-06-10T09:34:54.772Z,11.80
2019-06-10T09:35:52.805Z,12.30
2019-06-10T09:36:56.001Z,11.80
2019-06-10T09:37:51.671Z,15.00
2019-06-10T09:38:52.768Z,11.10
2019-06-10T09:39:58.032Z,10.20
2019-06-10T09:40:55.463Z,11.50
2019-06-10T09:41:59.731Z,12.80
2019-06-10T09:42:52.377Z,11.30
2019-06-10T09:43:55.742Z,11.10
2019-06-10T09:44:50.879Z,10.00
2019-06-10T09:45:51.365Z,10.70
2019-06-10T09:46:52.040Z,11.20
2019-06-10T09:47:55.567Z,10.50
2019-06-10T09:48:51.814Z,15.00
2019-06-10T09:49:51.435Z,12.00
2019-06-10T09:50:56.644Z,10.70
2019-06-10T09:51:52.768Z,13.60
2019-06-10T09:52:53.427Z,9.10
2019-06-10T09:53:56.353Z,10.80
2019-06-10T09:54:55.686Z,7.90
2019-06-10T09:55:52.445Z,10.00
2019-06-10T09:56:50.406Z,11.70
2019-06-10T09:57:53.170Z,8.10
2019-06-10T09:58:51.133Z,9.80
2019-06-10T09:59:54.058Z,10.90
2019-06-10T10:00:57.751Z,8.00
2019-06-10T10:01:52.264Z,12.80
2019-06-10T10:02:52.044Z,8.80
2019-06-10T10:03:54.985Z,10.30
2019-06-10T10:04:52.927Z,11.60
2019-06-10T10:05:59.377Z,8.60
2019-06-10T10:06:52.441Z,7.50
2019-06-10T10:07:51.937Z,9.40
2019-06-10T10:08:52.726Z,7.90
2019-06-10T10:09:51.990Z,8.10
2019-06-10T10:10:52.006Z,5.90
2019-06-10T10:11:51.337Z,5.50
2019-06-10T10:12:51.229Z,6.30
2019-06-10T10:13:49.877Z,7.30
2019-06-10T10:14:50.223Z,6.40
2019-06-10T10:15:48.269Z,6.00
2019-06-10T10:16:52.797Z,5.90
2019-06-10T10:17:49.917Z,5.50
2019-06-10T10:18:52.102Z,6.30
2019-06-10T10:19:50.347Z,5.60
2019-06-10T10:20:49.892Z,3.80
2019-06-10T10:21:50.231Z,4.50
2019-06-10T10:22:50.460Z,5.90
2019-06-10T10:23:59.835Z,4.30
2019-06-10T10:24:49.350Z,4.10
2019-06-10T10:25:49.584Z,4.40
2019-06-10T10:26:50.861Z,5.10
2019-06-10T10:27:51.263Z,5.10
2019-06-10T10:28:50.769Z,4.60
2019-06-10T10:29:49.984Z,6.60
2019-06-10T10:30:50.489Z,5.40
2019-06-10T10:31:50.754Z,5.80
2019-06-10T10:32:50.465Z,6.50
2019-06-10T10:33:48.454Z,7.00
2019-06-10T10:34:49.587Z,4.60
2019-06-10T10:35:49.295Z,4.50
2019-06-10T10:36:48.781Z,5.20
2019-06-10T10:37:48.528Z,5.30
2019-06-10T10:38:48.828Z,5.80
2019-06-10T10:39:49.055Z,5.50
2019-06-10T10:40:50.323Z,4.60
2019-06-10T10:41:48.665Z,5.40
2019-06-10T10:42:55.938Z,6.60
2019-06-10T10:43:51.358Z,4.80
2019-06-10T10:44:51.221Z,4.90
2019-06-10T10:45:51.536Z,6.50
2019-06-10T10:46:49.314Z,7.40
2019-06-10T10:47:48.999Z,5.50
2019-06-10T10:48:49.020Z,6.50
2019-06-10T10:49:49.082Z,5.40
2019-06-10T10:50:49.165Z,5.40
2019-06-10T10:51:49.000Z,6.60
2019-06-10T10:52:48.631Z,4.50
2019-06-10T10:53:56.221Z,6.20
2019-06-10T10:54:49.420Z,6.00
2019-06-10T10:55:49.170Z,7.50
2019-06-10T10:56:49.614Z,6.00
2019-06-10T10:57:47.817Z,5.40
2019-06-10T10:58:49.224Z,6.30
2019-06-10T10:59:47.858Z,6.20
2019-06-10T11:00:49.963Z,5.10
2019-06-10T11:01:47.797Z,5.80
2019-06-10T11:02:50.703Z,6.30
2019-06-10T11:03:49.725Z,7.40
2019-06-10T11:04:48.028Z,6.70
2019-06-10T11:05:49.854Z,6.30
2019-06-10T11:06:47.838Z,5.20
2019-06-10T11:07:47.765Z,6.30
2019-06-10T11:08:48.354Z,5.80
2019-06-10T11:09:48.564Z,6.10
2019-06-10T11:10:49.363Z,7.00
2019-06-10T11:11:48.859Z,4.30
2019-06-10T11:12:49.008Z,5.50
2019-06-10T11:13:47.660Z,4.90
2019-06-10T11:14:47.645Z,4.90
2019-06-10T11:15:49.022Z,7.60
2019-06-10T11:16:49.503Z,5.90
2019-06-10T11:17:47.612Z,7.10
2019-06-10T11:18:47.616Z,5.70
2019-06-10T11:19:47.594Z,5.70
2019-06-10T11:20:47.625Z,6.20
2019-06-10T11:21:47.571Z,6.00
2019-06-10T11:22:47.589Z,6.10
2019-06-10T11:23:48.106Z,7.70
2019-06-10T11:24:48.930Z,6.50
2019-06-10T11:25:47.796Z,9.60
2019-06-10T11:26:47.862Z,6.70
2019-06-10T11:27:48.427Z,6.80
2019-06-10T11:28:47.522Z,4.40
2019-06-10T11:29:48.175Z,7.30
2019-06-10T11:30:47.507Z,5.00
2019-06-10T11:31:48.460Z,7.20
2019-06-10T11:32:47.945Z,5.50
2019-06-10T11:33:48.712Z,5.80
2019-06-10T11:34:47.764Z,4.50
2019-06-10T11:35:48.726Z,6.70
2019-06-10T11:36:47.965Z,6.70
2019-06-10T11:37:48.878Z,7.20
2019-06-10T11:38:48.580Z,4.50
2019-06-10T11:39:48.147Z,7.70
2019-06-10T11:40:47.404Z,6.20
2019-06-10T11:41:48.345Z,5.50
2019-06-10T11:42:48.339Z,5.10
2019-06-10T11:43:48.384Z,6.10
2019-06-10T11:44:48.394Z,7.30
2019-06-10T11:45:51.175Z,8.00
2019-06-10T11:46:48.619Z,6.90
2019-06-10T11:47:47.310Z,6.60
2019-06-10T11:48:47.304Z,6.20
2019-06-10T11:49:47.304Z,6.40
2019-06-10T11:50:47.295Z,7.30
2019-06-10T11:51:47.288Z,4.90
2019-06-10T11:52:47.588Z,5.30
2019-06-10T11:53:47.456Z,6.20
2019-06-10T11:54:55.604Z,5.40
2019-06-10T11:55:48.253Z,7.30
2019-06-10T11:56:47.738Z,5.60
2019-06-10T11:57:47.858Z,9.40
2019-06-10T11:58:47.889Z,6.10
2019-06-10T11:59:48.009Z,5.40
2019-06-10T12:00:48.684Z,6.30
2019-06-10T12:01:49.791Z,7.30
2019-06-10T12:02:48.250Z,8.60
2019-06-10T12:03:48.364Z,7.10
2019-06-10T12:04:48.350Z,6.30
2019-06-10T12:05:48.954Z,6.00
2019-06-10T12:06:47.136Z,7.20
2019-06-10T12:07:47.112Z,10.50
2019-06-10T12:08:47.096Z,6.60
2019-06-10T12:09:47.104Z,6.50
2019-06-10T12:10:47.073Z,7.70
2019-06-10T12:11:47.083Z,6.70
2019-06-10T12:12:47.058Z,5.60
2019-06-10T12:13:47.070Z,5.60
2019-06-10T12:14:47.033Z,7.60
2019-06-10T12:16:42.461Z,4.90
2019-06-10T12:17:17.546Z,6.20
2019-06-10T12:17:52.684Z,5.70
2019-06-10T12:18:49.043Z,5.50
2019-06-10T12:19:46.999Z,6.10
2019-06-10T12:20:46.981Z,7.50
2019-06-10T12:21:47.008Z,8.60
2019-06-10T12:22:46.980Z,4.50
2019-06-10T12:23:46.953Z,6.40
2019-06-10T12:24:46.941Z,6.00
2019-06-10T12:25:48.015Z,7.50
2019-06-10T12:26:46.933Z,5.60
2019-06-10T12:27:46.908Z,5.80
2019-06-10T12:28:46.901Z,6.80
2019-06-10T12:29:46.891Z,9.10
2019-06-10T12:30:46.869Z,7.00
2019-06-10T12:31:46.884Z,6.00
2019-06-10T12:32:46.849Z,7.00
2019-06-10T12:33:46.846Z,7.70
2019-06-10T12:34:46.829Z,5.20
2019-06-10T12:35:46.819Z,6.40
2019-06-10T12:36:46.830Z,6.90
2019-06-10T12:37:46.815Z,6.80
2019-06-10T12:38:46.789Z,5.70
2019-06-10T12:39:46.783Z,5.10
2019-06-10T12:40:46.768Z,5.70
2019-06-10T12:41:46.778Z,4.90
2019-06-10T12:42:46.759Z,6.00
2019-06-10T12:43:46.737Z,6.30
2019-06-10T12:44:46.727Z,6.20
2019-06-10T12:45:46.716Z,5.40
2019-06-10T12:46:46.738Z,7.10
2019-06-10T12:47:46.693Z,6.20
2019-06-10T12:48:46.681Z,6.30
2019-06-10T12:49:46.674Z,8.00
2019-06-10T12:50:46.661Z,4.60
2019-06-10T12:51:46.656Z,6.00
2019-06-10T12:52:46.666Z,6.80
2019-06-10T12:53:46.632Z,6.30
2019-06-10T12:54:46.618Z,7.70
2019-06-10T12:55:47.218Z,5.90
2019-06-10T12:56:46.599Z,7.60
2019-06-10T12:57:46.611Z,6.10
2019-06-10T12:58:46.585Z,8.00
2019-06-10T12:59:46.577Z,6.90
2019-06-10T13:00:46.633Z,6.60
2019-06-10T13:01:46.703Z,5.90
2019-06-10T13:02:46.578Z,5.40
2019-06-10T13:03:46.530Z,7.10
2019-06-10T13:04:46.524Z,8.20
2019-06-10T13:05:46.510Z,6.80
2019-06-10T13:06:46.511Z,5.80
2019-06-10T13:07:46.507Z,6.10
2019-06-10T13:08:46.483Z,7.00
2019-06-10T13:09:46.468Z,5.00
2019-06-10T13:10:46.467Z,4.70
2019-06-10T13:11:46.446Z,6.80
2019-06-10T13:12:48.875Z,5.50
2019-06-10T13:13:46.446Z,7.50